Time;durP1;ratioP1;P1;durP2;ratioP2;P2;SDS_P1;SDS_P2;PMS_P1;PMS_P2;Temp;Humidity;BMP_temperature;BMP_pressure;BME280_temperature;BME280_humidity;BME280_pressure;Samples;Min_cycle;Max_cycle;Signal;HPM_P1;HPM_P2
2022/12/06 00:02:06;;;;;;;32.13;11.77;;;;;;;8.28;100.00;94404.94;5076225;28;20331;-86
2022/12/06 00:04:31;;;;;;;308.27;22.02;;;;;;;7.80;100.00;94419.72;5076222;28;20107;-86
2022/12/06 00:06:57;;;;;;;819.55;48.58;;;;;;;7.68;100.00;94402.41;5075853;28;20086;-86
2022/12/06 00:09:28;;;;;;;292.45;20.63;;;;;;;7.90;100.00;94404.94;5074778;28;20063;-86
2022/12/06 00:11:55;;;;;;;268.45;22.00;;;;;;;7.82;100.00;94404.63;5075241;28;20052;-86
2022/12/06 00:14:21;;;;;;;182.75;14.48;;;;;;;8.25;100.00;94397.63;5078549;28;20036;-87
2022/12/06 00:16:47;;;;;;;168.52;17.90;;;;;;;8.19;100.00;94401.25;5079645;28;20055;-87
2022/12/06 00:19:15;;;;;;;85.85;13.43;;;;;;;7.90;100.00;94391.91;5078442;28;20036;-87
2022/12/06 00:21:41;;;;;;;177.20;16.77;;;;;;;8.35;100.00;94391.69;5078234;28;20025;-86
2022/12/06 00:24:12;;;;;;;48.70;10.65;;;;;;;8.40;100.00;94390.94;5078103;28;20028;-87
2022/12/06 00:26:39;;;;;;;110.80;12.60;;;;;;;8.26;100.00;94382.75;5078281;28;20342;-87
2022/12/06 00:29:06;;;;;;;307.60;18.23;;;;;;;8.01;100.00;94386.75;5078514;28;20417;-87
2022/12/06 00:31:34;;;;;;;80.97;11.35;;;;;;;8.00;100.00;94396.41;5079587;28;20350;-86
2022/12/06 00:34:00;;;;;;;60.60;10.50;;;;;;;8.03;100.00;94395.94;5061203;28;20036;-86
2022/12/06 00:36:31;;;;;;;201.32;14.45;;;;;;;7.81;100.00;94390.78;5077808;28;20120;-86
2022/12/06 00:39:01;;;;;;;35.53;9.68;;;;;;;8.20;100.00;94387.94;5077801;28;20059;-86
2022/12/06 00:41:26;;;;;;;399.92;19.25;;;;;;;7.85;100.00;94391.06;5077944;28;20083;-86
2022/12/06 00:43:52;;;;;;;26.55;9.00;;;;;;;7.98;100.00;94389.88;5077720;28;20028;-86
2022/12/06 00:46:24;;;;;;;267.50;17.15;;;;;;;7.82;100.00;94391.56;5077480;28;20028;-87
2022/12/06 00:48:50;;;;;;;121.25;13.88;;;;;;;8.02;100.00;94385.72;5077959;28;20025;-87
2022/12/06 00:51:19;;;;;;;62.03;9.80;;;;;;;8.41;100.00;94376.81;5077876;28;20330;-87
2022/12/06 00:53:45;;;;;;;156.48;13.18;;;;;;;8.25;100.00;94373.34;5077739;28;20036;-87
2022/12/06 00:56:11;;;;;;;25.45;8.27;;;;;;;8.36;100.00;94374.97;5079230;28;20453;-87
2022/12/06 00:58:37;;;;;;;31.50;8.52;;;;;;;8.47;100.00;94370.63;5078006;28;20028;-86
2022/12/06 01:01:08;;;;;;;68.93;9.93;;;;;;;7.92;100.00;94376.78;5077259;28;20103;-87
2022/12/06 01:03:33;;;;;;;158.13;13.80;;;;;;;7.52;100.00;94377.25;5077879;28;20109;-87
2022/12/06 01:06:04;;;;;;;56.10;10.23;;;;;;;7.81;100.00;94372.50;5077387;28;20066;-86
2022/12/06 01:08:29;;;;;;;68.55;10.25;;;;;;;7.89;100.00;94369.47;5078769;28;20066;-86
2022/12/06 01:10:55;;;;;;;80.75;10.68;;;;;;;8.13;100.00;94382.16;5060491;28;20430;-86
2022/12/06 01:13:20;;;;;;;112.35;13.38;;;;;;;8.11;100.00;94373.78;5077156;28;20468;-86
2022/12/06 01:15:46;;;;;;;145.70;11.38;;;;;;;8.27;100.00;94373.91;5077370;28;20031;-87
2022/12/06 01:18:11;;;;;;;73.03;9.02;;;;;;;8.30;100.00;94378.59;5060847;28;20024;-86
2022/12/06 01:20:36;;;;;;;19.45;8.63;;;;;;;8.37;100.00;94376.53;5077362;28;20024;-86
2022/12/06 01:23:02;;;;;;;223.50;17.55;;;;;;;8.15;100.00;94384.50;5076780;28;20441;-87
2022/12/06 01:25:29;;;;;;;187.48;14.35;;;;;;;7.94;100.00;94371.31;5078333;28;20024;-87
2022/12/06 01:28:10;;;;;;;202.05;13.25;;;;;;;7.90;100.00;94365.81;5077319;28;20484;-87
2022/12/06 01:30:38;;;;;;;129.93;10.23;;;;;;;7.68;100.00;94371.13;5078353;28;20036;-86
2022/12/06 01:33:04;;;;;;;24.25;7.78;;;;;;;8.09;100.00;94359.41;5076749;28;20024;-87
2022/12/06 01:35:29;;;;;;;253.70;17.45;;;;;;;7.87;100.00;94358.50;5078144;28;20430;-87
2022/12/06 01:37:55;;;;;;;108.25;12.10;;;;;;;7.80;100.00;94368.34;5076901;28;20025;-86
2022/12/06 01:40:24;;;;;;;338.92;16.17;;;;;;;7.64;100.00;94367.44;5077829;28;20035;-86
2022/12/06 01:42:52;;;;;;;221.15;13.25;;;;;;;7.65;100.00;94369.00;5078011;28;20036;-87
2022/12/06 01:45:18;;;;;;;64.50;9.75;;;;;;;8.00;100.00;94364.31;5076832;28;20028;-87
2022/12/06 01:47:44;;;;;;;232.35;13.32;;;;;;;8.07;100.00;94362.25;5077814;28;20036;-87
2022/12/06 01:50:31;;;;;;;122.88;8.63;;;;;;;8.07;100.00;94365.69;5076888;28;20033;-87
2022/12/06 01:53:02;;;;;;;169.82;11.27;;;;;;;7.86;100.00;94363.94;5076758;28;20025;-87
2022/12/06 01:55:31;;;;;;;58.28;8.15;;;;;;;7.88;100.00;94364.47;5076530;28;20307;-87
2022/12/06 01:57:59;;;;;;;79.85;8.13;;;;;;;7.57;100.00;94359.03;5077969;28;20074;-86
2022/12/06 02:00:25;;;;;;;208.90;11.27;;;;;;;7.31;100.00;94366.59;5077281;28;20090;-87
2022/12/06 02:02:51;;;;;;;187.93;13.02;;;;;;;7.31;100.00;94366.59;5076871;28;20024;-87
2022/12/06 02:05:17;;;;;;;162.88;10.82;;;;;;;7.35;100.00;94362.50;5059841;28;20442;-87
2022/12/06 02:07:43;;;;;;;200.00;12.20;;;;;;;7.80;100.00;94357.13;5077409;28;20326;-87
2022/12/06 02:10:09;;;;;;;37.95;6.38;;;;;;;7.68;100.00;94352.09;5076230;28;20030;-87
2022/12/06 02:12:35;;;;;;;76.78;7.20;;;;;;;7.91;100.00;94351.72;5076566;28;20444;-86
2022/12/06 02:15:00;;;;;;;42.28;7.35;;;;;;;7.91;100.00;94343.91;5076282;28;20032;-87
2022/12/06 02:17:26;;;;;;;279.13;14.38;;;;;;;6.81;100.00;94337.97;5076096;28;20047;-86
2022/12/06 02:20:50;;;;;;;34.28;7.13;;;;;;;7.44;100.00;94339.38;5077169;28;20338;-86
2022/12/06 02:23:38;;;;;;;266.35;13.98;;;;;;;6.88;100.00;94340.41;5058934;28;20442;-86
2022/12/06 02:26:13;;;;;;;60.67;6.53;;;;;;;7.06;100.00;94344.50;5059349;28;20033;-86
2022/12/06 02:29:14;;;;;;;172.48;11.05;;;;;;;7.15;100.00;94350.81;5076967;28;20024;-87
2022/12/06 02:31:56;;;;;;;39.35;5.75;;;;;;;7.50;100.00;94352.22;5075902;28;20049;-87
2022/12/06 02:34:30;;;;;;;19.55;6.57;;;;;;;7.60;100.00;94343.69;5075649;28;20107;-86
2022/12/06 02:37:09;;;;;;;486.70;24.95;;;;;;;7.30;100.00;94344.19;5075575;28;20020;-86
2022/12/06 02:39:38;;;;;;;54.08;6.30;;;;;;;7.16;100.00;94344.56;5075632;28;20035;-86
2022/12/06 02:42:11;;;;;;;138.10;11.23;;;;;;;7.19;100.00;94345.91;5076798;28;20032;-87
2022/12/06 02:44:41;;;;;;;43.38;7.53;;;;;;;7.36;100.00;94348.44;5075888;28;20021;-86
2022/12/06 02:47:09;;;;;;;10.85;4.85;;;;;;;7.45;100.00;94340.94;5075517;28;20319;-86
2022/12/06 02:49:37;;;;;;;199.88;11.43;;;;;;;7.50;100.00;94354.00;5075835;28;20062;-87
2022/12/06 02:52:03;;;;;;;248.45;14.57;;;;;;;6.54;100.00;94338.72;5075632;28;20471;-87
2022/12/06 02:54:29;;;;;;;241.20;14.88;;;;;;;6.32;100.00;94341.28;5075987;28;20029;-87
2022/12/06 02:56:54;;;;;;;33.22;6.68;;;;;;;6.69;100.00;94339.91;5075652;28;20078;-87
2022/12/06 02:59:20;;;;;;;172.77;11.55;;;;;;;6.59;100.00;94343.19;5075696;28;20485;-87
2022/12/06 03:01:52;;;;;;;343.45;14.75;;;;;;;6.75;100.00;94336.34;5076733;28;20051;-87
2022/12/06 03:04:45;;;;;;;12.70;4.85;;;;;;;6.92;100.00;94339.66;5075649;28;20447;-87
2022/12/06 03:07:41;;;;;;;66.70;6.40;;;;;;;6.88;100.00;94335.97;5076488;28;20056;-86
2022/12/06 03:10:25;;;;;;;70.28;7.75;;;;;;;6.85;100.00;94326.03;5075505;28;20442;-87
2022/12/06 03:12:50;;;;;;;145.75;9.38;;;;;;;6.31;100.00;94330.13;5076407;28;20029;-87
2022/12/06 03:15:36;;;;;;;302.05;17.02;;;;;;;5.80;100.00;94325.75;5076724;28;20055;-87
2022/12/06 03:18:11;;;;;;;183.82;11.05;;;;;;;6.09;100.00;94324.84;5075838;28;20046;-86
2022/12/06 03:20:43;;;;;;;199.80;11.30;;;;;;;6.10;100.00;94330.84;5075382;28;20111;-87
2022/12/06 03:23:21;;;;;;;161.77;14.15;;;;;;;5.82;100.00;94317.72;5075465;28;20111;-87
2022/12/06 03:25:47;;;;;;;181.95;13.90;;;;;;;5.60;100.00;94326.22;5076633;28;20047;-87
2022/12/06 03:28:14;;;;;;;213.60;11.98;;;;;;;5.61;100.00;94327.03;5075046;28;20033;-87
2022/12/06 03:30:43;;;;;;;87.35;7.65;;;;;;;5.79;100.00;94323.38;5075253;28;20024;-87
2022/12/06 03:33:09;;;;;;;66.10;7.43;;;;;;;6.24;100.00;94319.09;5075674;28;20033;-87
2022/12/06 03:35:36;;;;;;;145.82;9.68;;;;;;;6.49;100.00;94318.59;5076195;28;20029;-87
2022/12/06 03:38:07;;;;;;;17.27;6.82;;;;;;;6.95;100.00;94314.16;5076498;28;20103;-86
2022/12/06 03:40:36;;;;;;;113.70;8.20;;;;;;;6.36;100.00;94316.38;5074833;28;20024;-87
2022/12/06 03:43:01;;;;;;;13.52;5.35;;;;;;;6.88;100.00;94314.34;5074864;28;20024;-86
2022/12/06 03:45:49;;;;;;;114.07;8.73;;;;;;;6.46;100.00;94307.91;5075252;28;20091;-87
2022/12/06 03:48:22;;;;;;;276.90;15.18;;;;;;;6.19;100.00;94308.63;5078990;28;20115;-87
2022/12/06 03:51:08;;;;;;;39.23;6.10;;;;;;;6.98;100.00;94316.28;5078966;28;20105;-87
2022/12/06 03:53:34;;;;;;;41.20;6.10;;;;;;;7.01;100.00;94306.16;5078697;28;20032;-86
2022/12/06 03:55:59;;;;;;;117.53;10.32;;;;;;;6.81;100.00;94301.53;5078749;28;20021;-87
2022/12/06 03:58:25;;;;;;;16.05;5.47;;;;;;;6.98;100.00;94311.06;5080329;28;20029;-87
2022/12/06 04:00:50;;;;;;;360.33;16.65;;;;;;;6.39;100.00;94304.69;5079867;28;20031;-86
2022/12/06 04:03:16;;;;;;;285.83;13.50;;;;;;;6.12;100.00;94300.19;5078733;28;20082;-87
2022/12/06 04:05:41;;;;;;;11.50;5.82;;;;;;;6.69;100.00;94314.69;5079886;28;20414;-86
2022/12/06 04:08:07;;;;;;;97.93;8.02;;;;;;;6.44;100.00;94308.16;5079766;28;20115;-87
2022/12/06 04:10:32;;;;;;;36.53;6.45;;;;;;;6.65;100.00;94309.16;5079656;28;20055;-87
2022/12/06 04:13:00;;;;;;;52.13;5.50;;;;;;;6.57;100.00;94301.00;5078533;28;20028;-87
2022/12/06 04:15:32;;;;;;;205.55;12.35;;;;;;;5.75;100.00;94302.28;5079967;28;20032;-87
2022/12/06 04:18:12;;;;;;;48.40;5.50;;;;;;;6.22;100.00;94302.94;5078560;28;20040;-87
2022/12/06 04:23:33;;;;;;;27.73;5.70;;;;;;;6.47;100.00;94293.88;5078365;28;20052;-87
2022/12/06 04:25:59;;;;;;;11.23;5.95;;;;;;;6.35;100.00;94289.56;5078086;28;20081;-87
2022/12/06 04:39:53;;;;;;;17.30;4.55;;;;;;;5.58;100.00;94281.50;5077972;28;20039;-87
2022/12/06 04:45:04;;;;;;;136.68;10.45;;;;;;;5.48;100.00;94279.53;5079507;28;20075;-87
2022/12/06 04:47:30;;;;;;;221.85;13.93;;;;;;;5.71;100.00;94284.78;5077610;28;20323;-87
2022/12/06 04:49:55;;;;;;;291.23;16.38;;;;;;;5.68;100.00;94286.03;5077832;28;20035;-86
2022/12/06 04:52:21;;;;;;;194.77;13.55;;;;;;;5.78;100.00;94286.19;5078657;28;20046;-86
2022/12/06 04:54:46;;;;;;;20.35;6.28;;;;;;;6.40;100.00;94281.03;5077591;28;20074;-87
2022/12/06 04:57:13;;;;;;;97.85;10.20;;;;;;;6.49;100.00;94276.19;5078849;28;20046;-86
2022/12/06 04:59:41;;;;;;;225.45;13.82;;;;;;;6.44;100.00;94276.13;5076877;28;20025;-86
2022/12/06 05:02:09;;;;;;;398.65;21.30;;;;;;;5.98;100.00;94284.91;5078563;28;20113;-86
2022/12/06 05:04:34;;;;;;;331.67;19.73;;;;;;;5.89;100.00;94281.16;5077616;28;20039;-87
2022/12/06 05:07:00;;;;;;;209.52;12.82;;;;;;;6.04;100.00;94283.19;5078653;28;20032;-86
2022/12/06 05:09:25;;;;;;;140.18;13.15;;;;;;;5.95;100.00;94274.97;5075435;28;20099;-86
2022/12/06 05:11:51;;;;;;;222.43;12.57;;;;;;;6.14;100.00;94279.91;5076970;28;20040;-87
2022/12/06 05:14:16;;;;;;;269.20;16.42;;;;;;;5.83;100.00;94280.28;5078673;28;20036;-86
2022/12/06 05:16:42;;;;;;;76.30;8.68;;;;;;;6.39;100.00;94276.06;5064723;28;20056;-87
2022/12/06 05:19:07;;;;;;;21.90;5.57;;;;;;;6.63;100.00;94280.00;5073932;28;20434;-87
2022/12/06 05:21:33;;;;;;;201.50;10.93;;;;;;;6.57;100.00;94280.94;5077138;28;20039;-87
2022/12/06 05:23:58;;;;;;;21.30;5.05;;;;;;;6.39;100.00;94283.88;5078676;28;20032;-87
2022/12/06 05:26:26;;;;;;;69.90;7.22;;;;;;;6.75;100.00;94290.25;5076897;28;20445;-87
2022/12/06 05:28:52;;;;;;;324.80;18.40;;;;;;;5.39;100.00;94288.72;5077087;28;20397;-86
2022/12/06 05:31:18;;;;;;;93.95;8.85;;;;;;;5.90;100.00;94278.28;5076556;28;20074;-87
2022/12/06 05:33:44;;;;;;;51.38;6.88;;;;;;;5.30;100.00;94280.53;5077018;28;20028;-87
2022/12/06 05:36:19;;;;;;;23.35;5.75;;;;;;;5.80;100.00;94288.53;5078394;28;20067;-87
2022/12/06 05:38:45;;;;;;;209.65;13.93;;;;;;;5.87;100.00;94283.97;5078369;28;20037;-86
2022/12/06 05:41:11;;;;;;;470.17;23.98;;;;;;;5.75;100.00;94286.69;5076433;28;20071;-86
2022/12/06 05:43:36;;;;;;;19.90;6.68;;;;;;;5.88;100.00;94285.56;5078034;28;20036;-85
2022/12/06 05:46:02;;;;;;;411.50;22.17;;;;;;;5.03;100.00;94291.53;5077703;28;20082;-86
2022/12/06 05:48:28;;;;;;;153.65;14.60;;;;;;;5.59;100.00;94295.25;5077546;28;20354;-86
2022/12/06 05:50:53;;;;;;;500.05;30.50;;;;;;;5.20;100.00;94294.16;5077710;28;20036;-86
2022/12/06 05:53:19;;;;;;;279.92;15.35;;;;;;;5.17;100.00;94296.44;5076243;28;20331;-86
2022/12/06 05:55:45;;;;;;;506.17;23.67;;;;;;;4.90;100.00;94299.59;5076336;28;20043;-87
2022/12/06 05:58:11;;;;;;;464.70;22.08;;;;;;;4.67;100.00;94296.88;5077982;28;20028;-87
2022/12/06 06:00:37;;;;;;;216.38;12.60;;;;;;;4.84;100.00;94297.97;5076668;28;20036;-89
2022/12/06 06:03:02;;;;;;;339.83;18.42;;;;;;;4.90;100.00;94307.41;5077638;28;20122;-88
2022/12/06 06:05:29;;;;;;;412.30;24.50;;;;;;;4.46;100.00;94308.69;5076391;28;20059;-88
2022/12/06 06:07:54;;;;;;;343.42;16.67;;;;;;;4.72;100.00;94310.97;5077730;28;20033;-88
2022/12/06 06:10:20;;;;;;;416.15;22.08;;;;;;;4.64;100.00;94304.34;5076739;28;20389;-87
2022/12/06 06:12:46;;;;;;;559.45;26.70;;;;;;;4.10;100.00;94310.56;5077725;28;20504;-88
2022/12/06 06:15:12;;;;;;;330.27;19.67;;;;;;;4.22;100.00;94308.72;5072475;28;20067;-86
2022/12/06 06:17:38;;;;;;;216.75;12.48;;;;;;;4.22;100.00;94313.13;5056144;28;20031;-87
2022/12/06 06:20:05;;;;;;;147.00;10.48;;;;;;;4.53;100.00;94308.53;5057205;28;20021;-87
2022/12/06 06:22:32;;;;;;;131.75;10.63;;;;;;;4.67;100.00;94303.88;5057538;28;20027;-87
2022/12/06 06:24:58;;;;;;;29.42;5.55;;;;;;;5.13;100.00;94305.72;5056109;28;20032;-87
2022/12/06 06:27:23;;;;;;;13.65;5.68;;;;;;;5.16;100.00;94305.25;5055894;28;20438;-87
2022/12/06 06:29:49;;;;;;;325.70;19.77;;;;;;;4.62;100.00;94314.16;5055799;28;20111;-87
2022/12/06 06:32:14;;;;;;;197.35;11.80;;;;;;;4.41;100.00;94305.19;5056242;28;20033;-87
2022/12/06 06:34:40;;;;;;;98.85;10.20;;;;;;;4.36;100.00;94311.06;5057340;28;20036;-87
2022/12/06 06:37:05;;;;;;;139.98;13.05;;;;;;;4.43;100.00;94308.34;5039477;28;20021;-87
2022/12/06 06:39:30;;;;;;;28.75;5.78;;;;;;;5.16;100.00;94310.44;5057236;28;20037;-87
2022/12/06 06:41:56;;;;;;;27.63;5.55;;;;;;;5.54;100.00;94308.19;5057093;28;20300;-87
2022/12/06 06:44:21;;;;;;;210.07;14.77;;;;;;;5.19;100.00;94315.16;5056970;28;20025;-88
2022/12/06 06:46:47;;;;;;;14.02;4.78;;;;;;;5.37;100.00;94307.16;5055666;28;20033;-88
2022/12/06 06:49:17;;;;;;;240.60;13.98;;;;;;;5.52;100.00;94316.22;5056177;28;20025;-87
2022/12/06 06:51:43;;;;;;;11.18;3.85;;;;;;;5.52;100.00;94314.41;5055686;28;20029;-87
2022/12/06 06:54:09;;;;;;;18.52;3.85;;;;;;;5.24;100.00;94312.66;5055647;28;20120;-87
2022/12/06 06:56:35;;;;;;;227.32;11.98;;;;;;;5.07;100.00;94320.44;5055923;28;20127;-87
2022/12/06 06:59:02;;;;;;;75.53;6.43;;;;;;;5.14;100.00;94318.47;5055598;28;20120;-87
2022/12/06 07:01:28;;;;;;;80.05;7.10;;;;;;;5.69;100.00;94326.59;5055793;28;20083;-88
2022/12/06 07:03:53;;;;;;;63.42;8.48;;;;;;;6.00;100.00;94327.06;5055560;28;20025;-87
2022/12/06 07:06:19;;;;;;;18.50;6.50;;;;;;;6.21;100.00;94324.78;5055709;28;20037;-87
2022/12/06 07:08:46;;;;;;;145.98;10.23;;;;;;;5.72;100.00;94312.38;5055790;28;20063;-87
2022/12/06 07:11:11;;;;;;;232.32;13.82;;;;;;;5.18;100.00;94322.19;5055386;28;20029;-87
2022/12/06 07:13:38;;;;;;;39.88;9.40;;;;;;;5.91;100.00;94318.88;5038533;28;20036;-87
2022/12/06 07:16:05;;;;;;;67.15;8.68;;;;;;;5.99;100.00;94328.09;5038785;28;20446;-87
2022/12/06 07:18:31;;;;;;;189.43;11.77;;;;;;;5.98;100.00;94326.50;5039249;28;20021;-87
2022/12/06 07:21:02;;;;;;;43.08;10.05;;;;;;;6.36;100.00;94324.97;5055825;28;20028;-87
2022/12/06 07:23:29;;;;;;;93.55;13.30;;;;;;;5.91;100.00;94331.09;5043502;28;20078;-87
2022/12/06 07:26:01;;;;;;;68.38;10.98;;;;;;;5.61;100.00;94327.03;5060902;28;20032;-87
2022/12/06 07:28:27;;;;;;;318.13;22.58;;;;;;;5.66;100.00;94329.69;5042678;28;20179;-86
2022/12/06 07:30:52;;;;;;;441.80;28.20;;;;;;;5.34;100.00;94327.63;5059237;28;20032;-87
2022/12/06 07:33:17;;;;;;;40.97;10.88;;;;;;;5.83;100.00;94326.28;5060406;28;20028;-87
2022/12/06 07:35:43;;;;;;;39.53;11.43;;;;;;;6.31;100.00;94329.31;5060682;28;20495;-87
2022/12/06 07:38:08;;;;;;;421.10;28.48;;;;;;;5.55;100.00;94327.94;5059546;28;20044;-87
2022/12/06 07:40:34;;;;;;;46.50;11.50;;;;;;;6.07;100.00;94330.31;5059119;28;20068;-87
2022/12/06 07:45:43;;;;;;;113.38;14.95;;;;;;;6.38;100.00;94329.91;5058922;28;20346;-87
2022/12/06 07:48:10;;;;;;;898.78;51.45;;;;;;;5.98;100.00;94331.72;5059262;28;20029;-87
2022/12/06 07:50:35;;;;;;;440.20;27.15;;;;;;;6.12;100.00;94334.00;5060050;28;20025;-87
2022/12/06 07:53:01;;;;;;;94.10;11.68;;;;;;;6.38;100.00;94337.72;5058769;28;20039;-87
2022/12/06 07:55:27;;;;;;;46.95;10.23;;;;;;;6.78;100.00;94343.69;5058629;28;20147;-87
2022/12/06 07:57:52;;;;;;;54.42;10.88;;;;;;;7.02;100.00;94344.19;5059087;28;20029;-86
2022/12/06 08:00:18;;;;;;;166.23;12.80;;;;;;;6.69;100.00;94345.13;5058463;28;20079;-86
2022/12/06 08:02:43;;;;;;;212.13;16.63;;;;;;;6.49;100.00;94346.47;5059614;28;20025;-86
2022/12/06 08:05:09;;;;;;;326.85;21.77;;;;;;;6.60;100.00;94355.97;5059910;28;20112;-86
2022/12/06 08:07:35;;;;;;;684.63;38.78;;;;;;;6.13;100.00;94345.97;5059693;28;20434;-87
2022/12/06 08:10:00;;;;;;;132.63;13.30;;;;;;;6.35;100.00;94354.63;5058777;28;20037;-87
2022/12/06 08:12:29;;;;;;;258.40;16.17;;;;;;;6.52;100.00;94353.78;5059736;28;20025;-87
2022/12/06 08:14:54;;;;;;;94.03;12.18;;;;;;;6.69;100.00;94352.94;5058804;28;20032;-87
2022/12/06 08:17:20;;;;;;;65.72;10.50;;;;;;;6.54;100.00;94349.13;5058424;28;20074;-87
2022/12/06 08:19:45;;;;;;;48.95;10.15;;;;;;;7.33;100.00;94359.34;5058342;28;20021;-87
2022/12/06 08:22:11;;;;;;;21.10;8.98;;;;;;;7.56;100.00;94355.66;5058573;28;20028;-87
2022/12/06 08:24:36;;;;;;;14.55;8.10;;;;;;;7.75;100.00;94355.25;5059809;28;20025;-87
2022/12/06 08:27:02;;;;;;;279.48;16.75;;;;;;;7.60;100.00;94358.53;5058461;28;20029;-87
2022/12/06 08:29:27;;;;;;;372.90;20.88;;;;;;;7.09;100.00;94357.03;5059419;28;20024;-87
2022/12/06 08:31:52;;;;;;;32.65;7.93;;;;;;;7.74;100.00;94358.91;5041717;28;20025;-87
2022/12/06 08:34:18;;;;;;;81.05;10.07;;;;;;;7.85;100.00;94359.75;5056710;28;20021;-87
2022/12/06 08:36:43;;;;;;;30.30;7.55;;;;;;;8.29;100.00;94359.53;5059554;28;20338;-87
2022/12/06 08:39:10;;;;;;;128.32;10.75;;;;;;;8.38;100.00;94354.63;5058387;28;20033;-87
2022/12/06 08:41:54;;;;;;;270.10;16.75;;;;;;;8.32;100.00;94361.66;5058205;28;20074;-87
2022/12/06 08:44:20;;;;;;;22.83;7.38;;;;;;;8.18;100.00;94363.13;5058254;28;20423;-87
2022/12/06 08:46:45;;;;;;;167.82;12.35;;;;;;;7.83;100.00;94367.06;5058093;28;20059;-86
2022/12/06 08:49:12;;;;;;;83.13;9.25;;;;;;;8.02;100.00;94365.63;5057895;28;20045;-86
2022/12/06 08:51:38;;;;;;;72.53;8.68;;;;;;;8.24;100.00;94366.53;5058729;28;20350;-87
2022/12/06 08:54:05;;;;;;;97.90;9.73;;;;;;;8.85;100.00;94357.47;5057849;28;20021;-87
2022/12/06 08:56:30;;;;;;;369.27;19.75;;;;;;;7.47;100.00;94357.13;5057779;28;20032;-86
2022/12/06 08:58:56;;;;;;;113.53;10.65;;;;;;;8.56;100.00;94358.66;5058472;28;20032;-87
2022/12/06 09:01:24;;;;;;;329.65;15.18;;;;;;;8.58;100.00;94368.88;5057843;28;20430;-87
2022/12/06 09:03:50;;;;;;;49.28;6.80;;;;;;;8.71;100.00;94360.56;5057828;28;20132;-87
2022/12/06 09:06:16;;;;;;;334.50;18.83;;;;;;;8.61;100.00;94366.53;5057765;28;20035;-86
2022/12/06 09:08:41;;;;;;;247.07;15.93;;;;;;;8.37;100.00;94358.25;5057237;28;20389;-86
2022/12/06 09:11:07;;;;;;;337.33;20.60;;;;;;;8.77;100.00;94369.22;5058825;28;20028;-87
2022/12/06 09:13:33;;;;;;;473.30;24.15;;;;;;;8.11;100.00;94362.56;5058501;28;20418;-87
2022/12/06 09:16:00;;;;;;;80.50;8.88;;;;;;;9.20;100.00;94361.22;5057299;28;20032;-87
2022/12/06 09:18:27;;;;;;;595.97;31.35;;;;;;;7.78;100.00;94360.78;5057125;28;20112;-87
2022/12/06 09:20:52;;;;;;;29.60;6.22;;;;;;;8.98;100.00;94359.63;5057182;28;20051;-87
2022/12/06 09:23:17;;;;;;;42.03;5.68;;;;;;;9.23;100.00;94367.78;5058352;28;20016;-87
2022/12/06 09:25:43;;;;;;;82.38;6.15;;;;;;;9.20;100.00;94356.00;5058655;28;20037;-87
2022/12/06 09:28:09;;;;;;;197.48;10.93;;;;;;;8.91;100.00;94352.03;5058578;28;20471;-87
2022/12/06 09:30:35;;;;;;;72.50;6.18;;;;;;;8.62;100.00;94355.03;5057285;28;20053;-87
2022/12/06 09:33:00;;;;;;;168.65;13.18;;;;;;;8.49;100.00;94347.66;5058541;28;20063;-87
2022/12/06 09:35:26;;;;;;;252.02;13.88;;;;;;;8.95;100.00;94348.88;5058456;28;20521;-87
2022/12/06 09:37:52;;;;;;;305.85;14.98;;;;;;;9.21;100.00;94351.56;5058153;28;20111;-87
2022/12/06 09:40:31;;;;;;;596.00;29.63;;;;;;;8.84;100.00;94343.63;5057860;28;20025;-87
2022/12/06 09:42:59;;;;;;;40.50;6.00;;;;;;;9.62;100.00;94349.00;5056587;28;20041;-87
2022/12/06 09:45:30;;;;;;;270.77;13.50;;;;;;;9.38;100.00;94339.03;5057545;28;20057;-87
2022/12/06 09:48:12;;;;;;;165.65;9.65;;;;;;;9.53;100.00;94346.09;5056694;28;20028;-87
2022/12/06 09:51:00;;;;;;;17.60;6.18;;;;;;;10.45;100.00;94336.63;5057019;28;20028;-87
2022/12/06 09:53:33;;;;;;;10.13;5.85;;;;;;;10.58;100.00;94337.88;5057519;28;20056;-87
2022/12/06 09:56:05;;;;;;;191.20;10.45;;;;;;;10.54;100.00;94338.69;5056673;28;20463;-87
2022/12/06 09:58:53;;;;;;;52.10;5.47;;;;;;;10.32;100.00;94332.69;5057731;28;20052;-87
2022/12/06 10:01:43;;;;;;;16.00;4.78;;;;;;;10.97;100.00;94340.88;5046877;28;20037;-86
2022/12/06 10:04:31;;;;;;;16.13;5.05;;;;;;;11.17;100.00;94340.00;5058136;28;20049;-87
2022/12/06 10:07:25;;;;;;;94.50;6.82;;;;;;;11.08;100.00;94337.16;5057875;28;20040;-87
2022/12/06 10:10:12;;;;;;;393.40;22.42;;;;;;;10.42;100.00;94331.13;5052989;28;20344;-87
2022/12/06 10:12:55;;;;;;;214.82;10.38;;;;;;;9.92;100.00;94328.31;5057457;28;20037;-87
2022/12/06 10:15:53;;;;;;;320.17;17.70;;;;;;;9.40;100.00;94331.72;5056066;28;20032;-86
2022/12/06 10:18:32;;;;;;;76.63;7.15;;;;;;;10.48;100.00;94314.38;5048645;28;20056;-87
2022/12/06 10:21:04;;;;;;;52.63;6.47;;;;;;;11.05;100.00;94316.72;5057270;28;20044;-87
2022/12/06 10:23:32;;;;;;;35.35;6.05;;;;;;;11.09;100.00;94312.50;5055981;28;20346;-87
2022/12/06 10:26:03;;;;;;;10.13;5.82;;;;;;;11.00;100.00;94309.69;5056978;28;20037;-87
2022/12/06 10:28:45;;;;;;;45.60;8.43;;;;;;;10.99;100.00;94305.50;5057119;28;20041;-87
2022/12/06 10:31:21;;;;;;;21.92;7.05;;;;;;;11.46;100.00;94313.81;5057056;28;20033;-87
2022/12/06 10:34:07;;;;;;;62.33;7.95;;;;;;;10.64;100.00;94311.69;5055923;28;20040;-87
2022/12/06 10:36:39;;;;;;;40.65;7.00;;;;;;;10.72;100.00;94313.72;5056996;28;20434;-87
2022/12/06 10:39:19;;;;;;;80.22;8.73;;;;;;;10.86;100.00;94304.22;5056821;28;20032;-87
2022/12/06 10:41:57;;;;;;;68.93;8.18;;;;;;;9.90;100.00;94311.06;5055741;28;20024;-87
2022/12/06 10:44:28;;;;;;;52.20;5.82;;;;;;;10.59;100.00;94304.63;5056134;28;20090;-87
2022/12/06 10:47:02;;;;;;;20.38;5.47;;;;;;;10.80;100.00;94305.31;5055673;28;20430;-88
2022/12/06 10:49:54;;;;;;;99.93;9.07;;;;;;;10.26;100.00;94302.34;5056079;28;20043;-86
2022/12/06 10:52:36;;;;;;;158.68;10.75;;;;;;;9.68;100.00;94298.25;5055597;28;20331;-86
2022/12/06 10:55:13;;;;;;;238.40;12.25;;;;;;;9.44;100.00;94303.22;5056614;28;20029;-87
2022/12/06 10:57:44;;;;;;;14.75;7.45;;;;;;;9.81;100.00;94301.38;5055246;28;20078;-87
2022/12/06 11:00:21;;;;;;;137.00;10.15;;;;;;;10.27;100.00;94288.19;5056628;28;20041;-87
2022/12/06 11:03:26;;;;;;;10.32;6.63;;;;;;;10.78;100.00;94294.31;5055607;28;20058;-87
2022/12/06 11:06:00;;;;;;;32.85;7.70;;;;;;;10.93;100.00;94282.19;5056772;28;20041;-87
2022/12/06 11:08:38;;;;;;;45.67;8.30;;;;;;;11.29;100.00;94295.88;5056366;28;20093;-87
2022/12/06 11:11:05;;;;;;;60.33;6.85;;;;;;;9.75;100.00;94282.28;5055453;28;20041;-87
2022/12/06 11:13:48;;;;;;;186.25;13.25;;;;;;;9.64;100.00;94288.56;5055348;28;20354;-87
2022/12/06 11:16:26;;;;;;;29.02;6.68;;;;;;;9.89;100.00;94277.28;5056675;28;20037;-87
2022/12/06 11:18:55;;;;;;;15.10;5.72;;;;;;;10.44;100.00;94281.88;5055731;28;20037;-87
2022/12/06 11:21:31;;;;;;;26.45;6.90;;;;;;;9.41;100.00;94275.00;5055287;28;20479;-87
2022/12/06 11:24:06;;;;;;;284.30;17.00;;;;;;;8.72;100.00;94275.13;5056847;28;20044;-87
2022/12/06 11:26:43;;;;;;;375.10;21.58;;;;;;;8.72;100.00;94265.50;5055047;28;20037;-87
2022/12/06 11:29:10;;;;;;;394.38;21.08;;;;;;;8.39;100.00;94270.03;5055437;28;20036;-87
2022/12/06 11:31:41;;;;;;;28.65;5.45;;;;;;;9.17;100.00;94275.50;5056663;28;20128;-87
2022/12/06 11:34:21;;;;;;;52.03;8.05;;;;;;;9.03;100.00;94259.53;5055626;28;20032;-87
2022/12/06 11:36:49;;;;;;;12.70;6.70;;;;;;;9.42;100.00;94258.25;5055640;28;20082;-87
2022/12/06 11:39:15;;;;;;;384.30;19.20;;;;;;;8.51;100.00;94254.19;5038584;28;20029;-87
2022/12/06 11:41:43;;;;;;;326.83;17.80;;;;;;;8.47;100.00;94246.06;5055419;28;20041;-87
2022/12/06 11:44:20;;;;;;;148.32;10.90;;;;;;;8.71;100.00;94250.06;5054883;28;20029;-87
2022/12/06 11:46:48;;;;;;;71.43;9.05;;;;;;;8.84;100.00;94240.97;5054889;28;20036;-87
2022/12/06 11:49:44;;;;;;;16.55;8.95;;;;;;;9.36;100.00;94239.16;5055465;28;20039;-87